Time;durP1;ratioP1;P1;durP2;ratioP2;P2;SDS_P1;SDS_P2;PMS_P1;PMS_P2;Temp;Humidity;BMP_temperature;BMP_pressure;BME280_temperature;BME280_humidity;BME280_pressure;Samples;Min_cycle;Max_cycle;Signal;HPM_P1;HPM_P2
2021/08/05 00:01:10;;;;;;;3.90;3.60;;;;;;;;;;4983552;28;20204;-57
2021/08/05 00:03:35;;;;;;;4.32;3.75;;;;;;;;;;4992658;28;20185;-56
2021/08/05 00:06:01;;;;;;;6.75;4.80;;;;;;;;;;4991247;28;20219;-57
2021/08/05 00:08:26;;;;;;;5.90;5.30;;;;;;;;;;4977198;28;20567;-56
2021/08/05 00:10:51;;;;;;;6.60;5.35;;;;;;;;;;4990465;28;20200;-57
2021/08/05 00:13:16;;;;;;;7.57;4.80;;;;;;;;;;4993554;28;20255;-56
2021/08/05 00:15:41;;;;;;;6.85;5.70;;;;;;;;;;4994420;28;20763;-56
2021/08/05 00:18:07;;;;;;;8.40;5.77;;;;;;;;;;4992055;28;20184;-56
2021/08/05 00:20:32;;;;;;;6.53;5.93;;;;;;;;;;4972833;28;20554;-56
2021/08/05 00:22:57;;;;;;;5.18;4.78;;;;;;;;;;4988727;28;20189;-55
2021/08/05 00:25:22;;;;;;;5.53;4.70;;;;;;;;;;4994236;28;20222;-56
2021/08/05 00:27:47;;;;;;;5.75;5.22;;;;;;;;;;4980383;28;20203;-57
2021/08/05 00:30:13;;;;;;;6.00;5.50;;;;;;;;;;4986878;28;20645;-56
2021/08/05 00:32:38;;;;;;;5.55;4.63;;;;;;;;;;4987713;28;20195;-56
2021/08/05 00:35:04;;;;;;;7.30;4.55;;;;;;;;;;4990566;28;20195;-56
2021/08/05 00:37:29;;;;;;;6.25;4.30;;;;;;;;;;4987819;28;20196;-56
2021/08/05 00:39:54;;;;;;;6.72;4.65;;;;;;;;;;4985744;28;20275;-56
2021/08/05 00:42:20;;;;;;;10.00;5.20;;;;;;;;;;4991329;28;20270;-56
2021/08/05 00:44:45;;;;;;;6.03;5.00;;;;;;;;;;4985315;28;20188;-57
2021/08/05 00:47:10;;;;;;;11.27;5.90;;;;;;;;;;4988393;28;20211;-57
2021/08/05 00:49:35;;;;;;;10.53;5.37;;;;;;;;;;4989653;28;20246;-56
2021/08/05 00:52:01;;;;;;;10.97;5.23;;;;;;;;;;4990825;28;20208;-57
2021/08/05 00:54:26;;;;;;;10.37;5.57;;;;;;;;;;4985547;28;20179;-56
2021/08/05 00:56:51;;;;;;;6.17;5.57;;;;;;;;;;4989414;28;20172;-56
2021/08/05 00:59:16;;;;;;;6.00;5.40;;;;;;;;;;4988800;28;20188;-57
2021/08/05 01:01:57;;;;;;;6.47;5.80;;;;;;;;;;4991547;28;20255;-57
2021/08/05 01:04:23;;;;;;;7.70;5.93;;;;;;;;;;4990262;28;20196;-56
2021/08/05 01:07:09;;;;;;;10.23;6.57;;;;;;;;;;4988748;28;20187;-56
2021/08/05 01:10:00;;;;;;;9.77;5.90;;;;;;;;;;4981707;28;20250;-57
2021/08/05 01:12:41;;;;;;;7.47;5.70;;;;;;;;;;4940841;28;20239;-56
2021/08/05 01:15:26;;;;;;;7.97;5.50;;;;;;;;;;4972102;28;20180;-57
2021/08/05 01:18:00;;;;;;;7.17;5.40;;;;;;;;;;4989410;28;20272;-57
2021/08/05 01:20:26;;;;;;;12.07;6.13;;;;;;;;;;4985070;28;20210;-57
2021/08/05 01:22:51;;;;;;;8.33;5.87;;;;;;;;;;4988868;28;20234;-56
2021/08/05 01:25:27;;;;;;;6.93;6.23;;;;;;;;;;4990209;28;20200;-57
2021/08/05 01:27:53;;;;;;;7.53;5.47;;;;;;;;;;4985896;28;20758;-57
2021/08/05 01:30:19;;;;;;;15.80;6.47;;;;;;;;;;4989293;28;20227;-57
2021/08/05 01:32:45;;;;;;;7.13;5.70;;;;;;;;;;4992070;28;20697;-57
2021/08/05 01:35:10;;;;;;;7.27;5.50;;;;;;;;;;4995788;28;20207;-57
2021/08/05 01:37:36;;;;;;;10.57;5.13;;;;;;;;;;4977712;28;20188;-56
2021/08/05 01:40:01;;;;;;;6.93;5.57;;;;;;;;;;4990790;28;20191;-57
2021/08/05 01:42:26;;;;;;;9.45;5.00;;;;;;;;;;4995693;28;20283;-56
2021/08/05 01:44:53;;;;;;;5.50;5.00;;;;;;;;;;4992542;28;20235;-57
2021/08/05 01:47:20;;;;;;;4.60;4.20;;;;;;;;;;4989890;28;20207;-56
2021/08/05 01:49:45;;;;;;;5.97;4.45;;;;;;;;;;4990016;28;20180;-57
2021/08/05 01:52:12;;;;;;;6.47;5.10;;;;;;;;;;4977879;28;20214;-58
2021/08/05 01:54:37;;;;;;;7.93;5.57;;;;;;;;;;4993262;28;20244;-57
2021/08/05 01:57:02;;;;;;;6.30;4.93;;;;;;;;;;4992546;28;20606;-56
2021/08/05 01:59:27;;;;;;;9.70;5.35;;;;;;;;;;4989797;28;20685;-56
2021/08/05 02:01:53;;;;;;;5.32;4.82;;;;;;;;;;4988480;28;20195;-57
2021/08/05 02:04:26;;;;;;;8.25;4.72;;;;;;;;;;4988345;28;20662;-57
2021/08/05 02:06:51;;;;;;;6.15;4.72;;;;;;;;;;4992855;28;20188;-56
2021/08/05 02:09:20;;;;;;;8.10;4.82;;;;;;;;;;4996565;28;20195;-58
2021/08/05 02:11:47;;;;;;;10.95;4.65;;;;;;;;;;4994984;28;20451;-57
2021/08/05 02:14:13;;;;;;;5.82;4.55;;;;;;;;;;4994509;28;20176;-56
2021/08/05 02:16:41;;;;;;;6.45;4.75;;;;;;;;;;4995422;28;20172;-57
2021/08/05 02:19:07;;;;;;;4.93;4.47;;;;;;;;;;4993095;28;20184;-57
2021/08/05 02:21:32;;;;;;;5.35;4.80;;;;;;;;;;4993597;28;20279;-56
2021/08/05 02:23:59;;;;;;;10.40;4.38;;;;;;;;;;4991762;28;20199;-56
2021/08/05 02:26:27;;;;;;;9.05;4.85;;;;;;;;;;4973757;28;20194;-56
2021/08/05 02:28:53;;;;;;;7.78;5.40;;;;;;;;;;4995266;28;20215;-56
2021/08/05 02:31:18;;;;;;;5.53;5.03;;;;;;;;;;4991615;28;20204;-56
2021/08/05 02:33:44;;;;;;;6.28;4.85;;;;;;;;;;4991091;28;20191;-56
2021/08/05 02:36:09;;;;;;;6.95;5.07;;;;;;;;;;4995588;28;20183;-57
2021/08/05 02:38:35;;;;;;;7.95;5.63;;;;;;;;;;4989979;28;20306;-55
2021/08/05 02:41:00;;;;;;;6.07;4.63;;;;;;;;;;4960454;28;20201;-56
2021/08/05 02:43:27;;;;;;;8.55;4.95;;;;;;;;;;4989575;28;20814;-56
2021/08/05 02:45:52;;;;;;;5.95;4.80;;;;;;;;;;4993993;28;20212;-56
2021/08/05 02:48:18;;;;;;;7.80;5.47;;;;;;;;;;4989410;28;20236;-56
2021/08/05 02:50:44;;;;;;;7.33;5.97;;;;;;;;;;4991754;28;20208;-56
2021/08/05 02:53:10;;;;;;;9.30;5.60;;;;;;;;;;4990600;28;20185;-56
2021/08/05 02:55:35;;;;;;;8.67;7.40;;;;;;;;;;4987976;28;20604;-56
2021/08/05 02:58:01;;;;;;;8.97;7.10;;;;;;;;;;4991988;28;20180;-57
2021/08/05 03:00:26;;;;;;;8.17;7.03;;;;;;;;;;4990071;28;20243;-57
2021/08/05 03:02:51;;;;;;;9.47;6.40;;;;;;;;;;4973410;28;20821;-57
2021/08/05 03:05:17;;;;;;;10.27;7.90;;;;;;;;;;4985140;28;20219;-56
2021/08/05 03:07:42;;;;;;;7.57;6.73;;;;;;;;;;4976511;28;20212;-57
2021/08/05 03:10:08;;;;;;;14.47;7.27;;;;;;;;;;4985027;28;20183;-57
2021/08/05 03:12:34;;;;;;;7.53;6.83;;;;;;;;;;4993208;28;20390;-56
2021/08/05 03:14:59;;;;;;;7.10;6.50;;;;;;;;;;4992457;28;20176;-56
2021/08/05 03:17:25;;;;;;;7.20;6.50;;;;;;;;;;4976727;28;20867;-57
2021/08/05 03:19:50;;;;;;;7.27;6.23;;;;;;;;;;4992143;28;20191;-57
2021/08/05 03:22:16;;;;;;;6.50;5.87;;;;;;;;;;4990252;28;20215;-57
2021/08/05 03:24:44;;;;;;;10.30;6.73;;;;;;;;;;4991904;28;20280;-56
2021/08/05 03:27:09;;;;;;;8.67;6.00;;;;;;;;;;4991526;28;20284;-56
2021/08/05 03:29:35;;;;;;;8.68;6.45;;;;;;;;;;4994186;28;20192;-56
2021/08/05 03:32:00;;;;;;;7.27;6.60;;;;;;;;;;4988442;28;20204;-56
2021/08/05 03:34:25;;;;;;;7.23;6.60;;;;;;;;;;4992823;28;20664;-57
2021/08/05 03:36:50;;;;;;;7.17;6.47;;;;;;;;;;4992961;28;20263;-57
2021/08/05 03:39:16;;;;;;;8.87;8.10;;;;;;;;;;4985636;28;20173;-56
2021/08/05 03:41:41;;;;;;;8.50;7.53;;;;;;;;;;4988959;28;20211;-56
2021/08/05 03:44:06;;;;;;;8.83;8.00;;;;;;;;;;4989051;28;20279;-57
2021/08/05 03:46:31;;;;;;;8.63;7.83;;;;;;;;;;4992206;28;20188;-57
2021/08/05 03:48:56;;;;;;;7.70;6.90;;;;;;;;;;4991277;28;20215;-55
2021/08/05 03:51:21;;;;;;;8.13;7.43;;;;;;;;;;4989461;28;20204;-56
2021/08/05 03:53:47;;;;;;;8.73;6.78;;;;;;;;;;4992403;28;20195;-55
2021/08/05 03:56:12;;;;;;;7.35;6.65;;;;;;;;;;4989353;28;20187;-57
2021/08/05 03:58:37;;;;;;;8.90;6.93;;;;;;;;;;4988076;28;20188;-57
2021/08/05 04:01:02;;;;;;;7.90;7.07;;;;;;;;;;4989457;28;20211;-56
2021/08/05 04:03:28;;;;;;;10.82;7.32;;;;;;;;;;4988245;28;20235;-56
2021/08/05 04:05:53;;;;;;;10.48;6.97;;;;;;;;;;4973021;28;20188;-56
2021/08/05 04:08:18;;;;;;;7.22;6.05;;;;;;;;;;4989260;28;20214;-56
2021/08/05 04:10:43;;;;;;;13.52;6.50;;;;;;;;;;4989330;28;20622;-56
2021/08/05 04:13:08;;;;;;;7.68;6.75;;;;;;;;;;4993164;28;20188;-57
2021/08/05 04:15:33;;;;;;;10.02;6.78;;;;;;;;;;4986394;28;20187;-56
2021/08/05 04:17:59;;;;;;;7.20;6.50;;;;;;;;;;4989163;28;20184;-57
2021/08/05 04:20:24;;;;;;;8.43;7.68;;;;;;;;;;4988979;28;20688;-57
2021/08/05 04:22:49;;;;;;;7.57;6.60;;;;;;;;;;4990825;28;20238;-56
2021/08/05 04:25:15;;;;;;;21.92;7.95;;;;;;;;;;4990408;28;20190;-57
2021/08/05 04:27:40;;;;;;;9.10;7.32;;;;;;;;;;4993125;28;20265;-57
2021/08/05 04:30:06;;;;;;;8.02;7.32;;;;;;;;;;4989640;28;20265;-57
2021/08/05 04:32:31;;;;;;;8.70;6.97;;;;;;;;;;4985769;28;20695;-57
2021/08/05 04:34:56;;;;;;;7.97;6.93;;;;;;;;;;4991826;28;20180;-56
2021/08/05 04:37:22;;;;;;;7.13;6.53;;;;;;;;;;4986228;28;20615;-56
2021/08/05 04:39:47;;;;;;;7.20;6.47;;;;;;;;;;4984337;28;20419;-56
2021/08/05 04:42:12;;;;;;;6.25;5.65;;;;;;;;;;4989670;28;20216;-57
2021/08/05 04:44:37;;;;;;;6.55;5.90;;;;;;;;;;4993313;28;20594;-56
2021/08/05 04:47:03;;;;;;;6.53;5.88;;;;;;;;;;4988285;28;20191;-57
2021/08/05 04:49:28;;;;;;;7.00;6.40;;;;;;;;;;4990286;28;20182;-56
2021/08/05 04:51:53;;;;;;;6.25;5.75;;;;;;;;;;4993025;28;20212;-56
2021/08/05 04:54:22;;;;;;;6.30;5.70;;;;;;;;;;4990876;28;20176;-58
2021/08/05 04:56:47;;;;;;;6.45;5.85;;;;;;;;;;4987788;28;20191;-57
2021/08/05 04:59:12;;;;;;;7.70;6.47;;;;;;;;;;4988588;28;20189;-56
2021/08/05 05:01:37;;;;;;;8.43;6.50;;;;;;;;;;4991740;28;20578;-56
2021/08/05 05:04:03;;;;;;;7.72;6.50;;;;;;;;;;4988286;28;20338;-56
2021/08/05 05:06:28;;;;;;;6.93;6.22;;;;;;;;;;4973502;28;20557;-57
2021/08/05 05:08:53;;;;;;;13.80;7.03;;;;;;;;;;4993014;28;20196;-57
2021/08/05 05:11:18;;;;;;;7.15;6.55;;;;;;;;;;4992225;28;20204;-56
2021/08/05 05:13:43;;;;;;;7.78;7.07;;;;;;;;;;4989214;28;20184;-56
2021/08/05 05:16:08;;;;;;;7.63;6.78;;;;;;;;;;4988744;28;20177;-57
2021/08/05 05:18:34;;;;;;;9.70;7.75;;;;;;;;;;4992534;28;20624;-56
2021/08/05 05:20:59;;;;;;;10.00;6.97;;;;;;;;;;4987850;28;20192;-57
2021/08/05 05:23:24;;;;;;;8.02;7.30;;;;;;;;;;4988022;28;20187;-56
2021/08/05 05:25:49;;;;;;;8.63;6.78;;;;;;;;;;4987013;28;20180;-57
2021/08/05 05:28:15;;;;;;;7.78;7.07;;;;;;;;;;4990438;28;20234;-56
2021/08/05 05:30:40;;;;;;;9.90;6.88;;;;;;;;;;4986538;28;20684;-56
2021/08/05 05:33:05;;;;;;;8.52;7.72;;;;;;;;;;4989416;28;20180;-55
2021/08/05 05:35:31;;;;;;;11.40;7.38;;;;;;;;;;4988174;28;20184;-56
2021/08/05 05:37:57;;;;;;;8.98;7.05;;;;;;;;;;4971807;28;20223;-56
2021/08/05 05:40:23;;;;;;;8.13;7.43;;;;;;;;;;4974637;28;20231;-56
2021/08/05 05:42:48;;;;;;;8.95;8.07;;;;;;;;;;4989948;28;20215;-55
2021/08/05 05:45:15;;;;;;;9.85;8.70;;;;;;;;;;4973499;28;20189;-56
2021/08/05 05:47:40;;;;;;;11.95;8.77;;;;;;;;;;4982428;28;20217;-56
2021/08/05 05:50:05;;;;;;;18.02;9.23;;;;;;;;;;4984375;28;20188;-55
2021/08/05 05:52:31;;;;;;;9.68;8.77;;;;;;;;;;4985712;28;20188;-56
2021/08/05 05:54:56;;;;;;;11.63;9.05;;;;;;;;;;4981633;28;20173;-56
2021/08/05 05:57:21;;;;;;;9.85;8.85;;;;;;;;;;4984305;28;20665;-57
2021/08/05 05:59:46;;;;;;;11.57;8.63;;;;;;;;;;4984160;28;20188;-56
2021/08/05 06:02:11;;;;;;;9.70;8.80;;;;;;;;;;4985347;28;20553;-57
2021/08/05 06:04:37;;;;;;;9.32;7.93;;;;;;;;;;4982625;28;20850;-57
2021/08/05 06:07:02;;;;;;;12.00;10.88;;;;;;;;;;4986431;28;20194;-56
2021/08/05 06:09:27;;;;;;;11.55;9.63;;;;;;;;;;4986679;28;20423;-55
2021/08/05 06:11:52;;;;;;;11.98;10.88;;;;;;;;;;4993225;28;20652;-55
2021/08/05 06:14:17;;;;;;;11.93;10.70;;;;;;;;;;4989222;28;20348;-56
2021/08/05 06:16:43;;;;;;;11.70;10.38;;;;;;;;;;4992077;28;20180;-56
2021/08/05 06:19:08;;;;;;;12.88;10.82;;;;;;;;;;4997921;28;20238;-56
2021/08/05 06:21:34;;;;;;;13.57;11.30;;;;;;;;;;4990978;28;20212;-56
2021/08/05 06:23:59;;;;;;;11.52;10.43;;;;;;;;;;4994069;28;20670;-56
2021/08/05 06:26:25;;;;;;;11.80;10.70;;;;;;;;;;4996962;28;20195;-56
2021/08/05 06:28:50;;;;;;;12.18;10.82;;;;;;;;;;4994507;28;20570;-57
2021/08/05 06:31:18;;;;;;;12.05;10.88;;;;;;;;;;4970147;28;20288;-56
2021/08/05 06:33:43;;;;;;;14.38;10.52;;;;;;;;;;4988857;28;20185;-56
2021/08/05 06:36:08;;;;;;;14.18;10.55;;;;;;;;;;4993857;28;20192;-56
2021/08/05 06:38:33;;;;;;;14.80;10.75;;;;;;;;;;4996824;28;20180;-56
2021/08/05 06:40:59;;;;;;;18.17;10.45;;;;;;;;;;4993082;28;20582;-56
2021/08/05 06:43:24;;;;;;;12.43;10.82;;;;;;;;;;4988737;28;20199;-56
2021/08/05 06:45:49;;;;;;;12.02;10.88;;;;;;;;;;4992097;28;20187;-56
2021/08/05 06:48:14;;;;;;;12.13;10.32;;;;;;;;;;4994665;28;20250;-57
2021/08/05 06:50:39;;;;;;;13.95;10.52;;;;;;;;;;4977635;28;20219;-56
2021/08/05 06:53:04;;;;;;;10.55;9.45;;;;;;;;;;4992905;28;20188;-57
2021/08/05 06:55:30;;;;;;;12.02;10.88;;;;;;;;;;4989354;28;20180;-56
2021/08/05 06:57:55;;;;;;;11.65;10.43;;;;;;;;;;4995072;28;20652;-56
2021/08/05 07:00:20;;;;;;;11.23;10.05;;;;;;;;;;4993004;28;20196;-56
2021/08/05 07:02:45;;;;;;;10.95;9.85;;;;;;;;;;4997134;28;20415;-57
2021/08/05 07:05:11;;;;;;;11.20;10.07;;;;;;;;;;4993610;28;20188;-56
2021/08/05 07:07:36;;;;;;;10.50;9.60;;;;;;;;;;4990924;28;20210;-56
2021/08/05 07:10:02;;;;;;;10.38;9.20;;;;;;;;;;4995400;28;20180;-57
2021/08/05 07:12:27;;;;;;;11.20;9.43;;;;;;;;;;4996149;28;20175;-56
2021/08/05 07:14:53;;;;;;;11.13;10.02;;;;;;;;;;4995748;28;20272;-56
2021/08/05 07:17:18;;;;;;;13.17;9.80;;;;;;;;;;4991028;28;20243;-55
2021/08/05 07:19:44;;;;;;;11.20;10.02;;;;;;;;;;4992206;28;20419;-54
2021/08/05 07:22:09;;;;;;;11.77;10.57;;;;;;;;;;4984503;28;20630;-56
2021/08/05 07:24:34;;;;;;;11.45;10.38;;;;;;;;;;4995365;28;20188;-56
2021/08/05 07:27:00;;;;;;;12.93;10.48;;;;;;;;;;4994935;28;20192;-56
2021/08/05 07:29:25;;;;;;;10.85;9.70;;;;;;;;;;4993902;28;20176;-56
2021/08/05 07:31:51;;;;;;;10.10;9.20;;;;;;;;;;4990315;28;20211;-56
2021/08/05 07:34:16;;;;;;;11.48;10.32;;;;;;;;;;4994013;28;20212;-56
2021/08/05 07:36:41;;;;;;;10.77;9.77;;;;;;;;;;4991705;28;20644;-56
2021/08/05 07:39:11;;;;;;;10.77;9.65;;;;;;;;;;4992816;28;20676;-56
2021/08/05 07:41:36;;;;;;;11.73;10.48;;;;;;;;;;4990219;28;20711;-56
2021/08/05 07:44:01;;;;;;;11.73;10.50;;;;;;;;;;4992701;28;20196;-56
2021/08/05 07:46:26;;;;;;;13.57;10.27;;;;;;;;;;4989239;28;21965;-56
2021/08/05 07:48:51;;;;;;;10.48;9.43;;;;;;;;;;4988951;28;20196;-56
2021/08/05 07:51:17;;;;;;;10.98;9.18;;;;;;;;;;4992281;28;20216;-56
2021/08/05 07:53:42;;;;;;;10.77;9.55;;;;;;;;;;4988242;28;20603;-56
2021/08/05 07:56:07;;;;;;;8.93;8.13;;;;;;;;;;4996094;28;20186;-57
2021/08/05 07:58:32;;;;;;;9.97;9.07;;;;;;;;;;4987087;28;20215;-57
2021/08/05 08:00:57;;;;;;;10.15;9.07;;;;;;;;;;4988433;28;20443;-56
2021/08/05 08:03:23;;;;;;;13.07;9.23;;;;;;;;;;4987837;28;20230;-57
2021/08/05 08:05:48;;;;;;;9.60;8.80;;;;;;;;;;4988242;28;20431;-56
2021/08/05 08:08:16;;;;;;;9.00;8.30;;;;;;;;;;4990550;28;20696;-57
2021/08/05 08:10:41;;;;;;;9.52;8.57;;;;;;;;;;4992871;28;20287;-56
2021/08/05 08:13:06;;;;;;;9.32;8.32;;;;;;;;;;4992897;28;20282;-56
2021/08/05 08:15:32;;;;;;;10.10;7.82;;;;;;;;;;4992122;28;20207;-57
2021/08/05 08:17:57;;;;;;;8.93;7.93;;;;;;;;;;4991928;28;20283;-56
2021/08/05 08:20:22;;;;;;;9.97;8.10;;;;;;;;;;4991468;28;20294;-56
2021/08/05 08:22:48;;;;;;;7.75;7.10;;;;;;;;;;4993206;28;20530;-56
2021/08/05 08:25:14;;;;;;;7.80;7.20;;;;;;;;;;4989507;28;20231;-58
2021/08/05 08:27:40;;;;;;;7.88;7.15;;;;;;;;;;4991062;28;20220;-57
2021/08/05 08:30:05;;;;;;;7.95;7.03;;;;;;;;;;4989507;28;20734;-56
2021/08/05 08:32:30;;;;;;;8.30;7.60;;;;;;;;;;4991214;28;20180;-56
2021/08/05 08:34:58;;;;;;;7.20;6.53;;;;;;;;;;4990706;28;20208;-56
2021/08/05 08:37:24;;;;;;;6.90;6.30;;;;;;;;;;4988974;28;20200;-56
2021/08/05 08:39:49;;;;;;;8.00;7.30;;;;;;;;;;4985893;28;20188;-56
2021/08/05 08:42:16;;;;;;;7.43;6.73;;;;;;;;;;4989976;28;20223;-56
2021/08/05 08:44:41;;;;;;;6.82;6.22;;;;;;;;;;4991554;28;20446;-56
2021/08/05 08:47:07;;;;;;;7.18;6.47;;;;;;;;;;4991082;28;20177;-55
2021/08/05 08:49:33;;;;;;;8.00;7.30;;;;;;;;;;4985310;28;20596;-56
2021/08/05 08:51:58;;;;;;;6.90;6.30;;;;;;;;;;4986927;28;20212;-56
2021/08/05 08:54:23;;;;;;;6.90;6.00;;;;;;;;;;4987263;28;20188;-57
2021/08/05 08:56:51;;;;;;;6.32;5.80;;;;;;;;;;4994234;28;20308;-56
2021/08/05 08:59:18;;;;;;;7.13;6.47;;;;;;;;;;4989126;28;20188;-56
2021/08/05 09:01:43;;;;;;;7.05;6.45;;;;;;;;;;4992051;28;20306;-57
2021/08/05 09:04:08;;;;;;;6.82;6.18;;;;;;;;;;4991503;28;20234;-56
2021/08/05 09:06:34;;;;;;;7.75;7.05;;;;;;;;;;4991590;28;20199;-56
2021/08/05 09:08:59;;;;;;;7.90;7.13;;;;;;;;;;4991508;28;20688;-56
2021/08/05 09:11:24;;;;;;;7.47;6.78;;;;;;;;;;4993520;28;20625;-56
2021/08/05 09:13:49;;;;;;;7.95;6.35;;;;;;;;;;4993270;28;20722;-55
2021/08/05 09:16:22;;;;;;;7.97;6.90;;;;;;;;;;4989695;28;20228;-56
2021/08/05 09:18:47;;;;;;;9.15;7.57;;;;;;;;;;4987044;28;20197;-56
2021/08/05 09:21:14;;;;;;;6.82;6.13;;;;;;;;;;4986787;28;20208;-56
2021/08/05 09:23:49;;;;;;;9.07;5.55;;;;;;;;;;4988566;28;20180;-56
2021/08/05 09:26:25;;;;;;;7.15;6.43;;;;;;;;;;4990553;28;20569;-56
2021/08/05 09:29:02;;;;;;;8.18;7.38;;;;;;;;;;4992235;28;20266;-56
2021/08/05 09:31:27;;;;;;;7.15;6.45;;;;;;;;;;4990852;28;20756;-57
2021/08/05 09:33:59;;;;;;;7.43;6.57;;;;;;;;;;4991091;28;20183;-56
2021/08/05 09:36:24;;;;;;;6.90;6.30;;;;;;;;;;4986649;28;20199;-56
2021/08/05 09:38:49;;;;;;;9.85;6.85;;;;;;;;;;4990842;28;20207;-56
2021/08/05 09:41:14;;;;;;;9.48;6.57;;;;;;;;;;4993218;28;20738;-56
2021/08/05 09:43:40;;;;;;;6.43;5.82;;;;;;;;;;4983965;28;20194;-57
2021/08/05 09:46:05;;;;;;;6.32;4.85;;;;;;;;;;4989118;28;20487;-57
2021/08/05 09:48:36;;;;;;;6.00;4.18;;;;;;;;;;4994177;28;20735;-56
2021/08/05 09:51:06;;;;;;;9.27;5.15;;;;;;;;;;4988699;28;20216;-57
2021/08/05 09:53:32;;;;;;;5.78;5.28;;;;;;;;;;4991234;28;20207;-57
2021/08/05 09:56:10;;;;;;;5.72;5.18;;;;;;;;;;4994094;28;20184;-57
2021/08/05 09:58:36;;;;;;;5.32;4.82;;;;;;;;;;4992523;28;20188;-56
2021/08/05 10:01:06;;;;;;;4.65;4.05;;;;;;;;;;4991687;28;20634;-57
2021/08/05 10:03:31;;;;;;;4.70;4.30;;;;;;;;;;4976181;28;20550;-56
2021/08/05 10:05:58;;;;;;;4.22;3.83;;;;;;;;;;4994522;28;20184;-56
2021/08/05 10:08:36;;;;;;;4.00;3.70;;;;;;;;;;4993321;28;20204;-57
2021/08/05 10:11:01;;;;;;;3.40;3.10;;;;;;;;;;4995577;28;20895;-57
2021/08/05 10:13:31;;;;;;;3.58;3.28;;;;;;;;;;4992432;28;20279;-58
2021/08/05 10:15:56;;;;;;;4.28;3.88;;;;;;;;;;4993492;28;20180;-56
2021/08/05 10:18:26;;;;;;;3.63;3.33;;;;;;;;;;4991744;28;20230;-56
2021/08/05 10:20:52;;;;;;;4.55;4.15;;;;;;;;;;4992874;28;20211;-57
2021/08/05 10:23:17;;;;;;;3.65;3.35;;;;;;;;;;4992988;28;20200;-57
2021/08/05 10:25:42;;;;;;;4.10;3.53;;;;;;;;;;4995900;28;20206;-57
2021/08/05 10:28:08;;;;;;;3.40;3.00;;;;;;;;;;4994885;28;20200;-57
2021/08/05 10:30:34;;;;;;;3.55;3.25;;;;;;;;;;4992159;28;20216;-56
2021/08/05 10:32:59;;;;;;;4.45;4.05;;;;;;;;;;4991950;28;20231;-57
2021/08/05 10:35:25;;;;;;;4.28;3.78;;;;;;;;;;4994536;28;20194;-57
2021/08/05 10:37:50;;;;;;;3.72;3.42;;;;;;;;;;4993850;28;20194;-57
2021/08/05 10:40:16;;;;;;;4.93;2.95;;;;;;;;;;4991815;28;20193;-57
2021/08/05 10:42:45;;;;;;;3.30;3.00;;;;;;;;;;4962438;28;20231;-57
2021/08/05 10:45:11;;;;;;;4.60;4.20;;;;;;;;;;4990351;28;20184;-55
2021/08/05 10:47:37;;;;;;;3.63;3.33;;;;;;;;;;4972754;28;20235;-57
2021/08/05 10:50:06;;;;;;;3.30;3.00;;;;;;;;;;4992987;28;20192;-57
2021/08/05 10:52:35;;;;;;;7.05;3.17;;;;;;;;;;4972242;28;20827;-57
2021/08/05 10:55:02;;;;;;;4.80;3.50;;;;;;;;;;4989396;28;20183;-56
2021/08/05 10:57:27;;;;;;;3.80;3.20;;;;;;;;;;4976354;28;20184;-56
2021/08/05 11:00:04;;;;;;;3.83;3.53;;;;;;;;;;4992689;28;20184;-57
2021/08/05 11:02:48;;;;;;;4.68;3.30;;;;;;;;;;4989877;28;20275;-57
2021/08/05 11:05:34;;;;;;;4.43;3.58;;;;;;;;;;4988745;28;20183;-57
2021/08/05 11:08:08;;;;;;;3.30;3.00;;;;;;;;;;4978107;28;20216;-56
2021/08/05 11:10:36;;;;;;;5.35;4.50;;;;;;;;;;4976806;28;20741;-56
2021/08/05 11:13:07;;;;;;;4.05;3.22;;;;;;;;;;4990780;28;20180;-56
2021/08/05 11:15:33;;;;;;;4.43;4.03;;;;;;;;;;4991045;28;20176;-57
2021/08/05 11:18:11;;;;;;;4.10;3.72;;;;;;;;;;4993836;28;20177;-57
2021/08/05 11:20:36;;;;;;;3.05;2.85;;;;;;;;;;4991303;28;20227;-57
2021/08/05 11:23:02;;;;;;;4.30;3.22;;;;;;;;;;4990905;28;20188;-56
2021/08/05 11:25:47;;;;;;;4.53;3.80;;;;;;;;;;4989706;28;20411;-57
2021/08/05 11:28:22;;;;;;;4.43;3.30;;;;;;;;;;4990789;28;20223;-55
2021/08/05 11:30:51;;;;;;;3.90;3.50;;;;;;;;;;4982531;28;20187;-57
2021/08/05 11:33:34;;;;;;;5.00;4.43;;;;;;;;;;4991945;28;20188;-57
2021/08/05 11:36:25;;;;;;;4.35;3.95;;;;;;;;;;4985066;28;20265;-57
2021/08/05 11:38:57;;;;;;;5.50;3.97;;;;;;;;;;4990521;28;20220;-57
2021/08/05 11:41:38;;;;;;;7.13;3.55;;;;;;;;;;4973520;28;20206;-57
2021/08/05 11:44:22;;;;;;;5.57;5.05;;;;;;;;;;4987049;28;20279;-57
2021/08/05 11:47:08;;;;;;;5.03;4.63;;;;;;;;;;4973851;28;20212;-56
2021/08/05 11:49:34;;;;;;;4.90;4.38;;;;;;;;;;4989765;28;20192;-56
2021/08/05 11:52:06;;;;;;;4.45;3.72;;;;;;;;;;4984929;28;20227;-56
2021/08/05 11:54:31;;;;;;;8.43;4.40;;;;;;;;;;4983595;28;20204;-55
2021/08/05 11:57:01;;;;;;;4.07;3.78;;;;;;;;;;4990977;28;20187;-55
2021/08/05 11:59:40;;;;;;;4.15;3.83;;;;;;;;;;4991099;28;20184;-57
2021/08/05 12:02:06;;;;;;;5.63;3.85;;;;;;;;;;4987278;28;20200;-55
2021/08/05 12:04:31;;;;;;;4.35;3.00;;;;;;;;;;4988244;28;20176;-57
2021/08/05 12:07:15;;;;;;;3.30;3.10;;;;;;;;;;4988952;28;20187;-55
2021/08/05 12:09:40;;;;;;;3.17;2.95;;;;;;;;;;4989120;28;20278;-57
2021/08/05 12:12:06;;;;;;;3.95;3.53;;;;;;;;;;4988708;28;20255;-57
2021/08/05 12:14:31;;;;;;;4.57;3.67;;;;;;;;;;4988108;28;20554;-57
2021/08/05 12:16:56;;;;;;;6.20;3.70;;;;;;;;;;4989944;28;20191;-57
2021/08/05 12:19:21;;;;;;;3.78;3.20;;;;;;;;;;4987976;28;20203;-55
2021/08/05 12:21:47;;;;;;;3.53;3.22;;;;;;;;;;4991805;28;20204;-56
2021/08/05 12:24:12;;;;;;;3.97;3.50;;;;;;;;;;4987303;28;20208;-55
2021/08/05 12:26:37;;;;;;;3.78;3.10;;;;;;;;;;4974585;28;20191;-55
2021/08/05 12:29:09;;;;;;;3.43;3.13;;;;;;;;;;4988867;28;20609;-55
2021/08/05 12:31:35;;;;;;;3.65;3.17;;;;;;;;;;4990295;28;20443;-56
2021/08/05 12:34:00;;;;;;;5.45;3.83;;;;;;;;;;4990653;28;20176;-57
2021/08/05 12:36:26;;;;;;;5.63;3.38;;;;;;;;;;4987713;28;20176;-57
2021/08/05 12:38:53;;;;;;;4.55;3.75;;;;;;;;;;4991911;28;20542;-56
2021/08/05 12:41:26;;;;;;;5.25;3.80;;;;;;;;;;4989900;28;20202;-55
2021/08/05 12:43:52;;;;;;;3.78;3.40;;;;;;;;;;4990289;28;20188;-55
2021/08/05 12:46:18;;;;;;;4.05;3.67;;;;;;;;;;4974130;28;20200;-55
2021/08/05 12:48:43;;;;;;;4.70;4.13;;;;;;;;;;4991352;28;20276;-54
2021/08/05 12:51:15;;;;;;;6.75;4.18;;;;;;;;;;4987577;28;20270;-56
2021/08/05 12:53:41;;;;;;;5.00;4.57;;;;;;;;;;4987560;28;20194;-56
2021/08/05 12:56:06;;;;;;;52.80;8.68;;;;;;;;;;4991583;28;20595;-55
2021/08/05 12:58:31;;;;;;;6.63;5.53;;;;;;;;;;4990120;28;20198;-56
2021/08/05 13:01:13;;;;;;;31.95;7.68;;;;;;;;;;4988659;28;20205;-55
2021/08/05 13:03:39;;;;;;;6.03;5.43;;;;;;;;;;4989967;28;20192;-56
2021/08/05 13:06:04;;;;;;;8.48;6.15;;;;;;;;;;4987832;28;20188;-55
2021/08/05 13:08:32;;;;;;;16.20;6.18;;;;;;;;;;4984915;28;20213;-55
2021/08/05 13:10:58;;;;;;;6.63;5.93;;;;;;;;;;4987786;28;20338;-56
2021/08/05 13:13:42;;;;;;;6.72;6.13;;;;;;;;;;4988316;28;20222;-55
2021/08/05 13:16:17;;;;;;;5.75;5.25;;;;;;;;;;4986536;28;20187;-56
2021/08/05 13:18:42;;;;;;;8.65;5.50;;;;;;;;;;4986051;28;20193;-56
2021/08/05 13:21:11;;;;;;;5.38;4.40;;;;;;;;;;4974364;28;20650;-54
2021/08/05 13:23:36;;;;;;;4.57;3.95;;;;;;;;;;4967431;28;20192;-54
2021/08/05 13:26:02;;;;;;;11.43;6.05;;;;;;;;;;4989130;28;20887;-55
2021/08/05 13:28:36;;;;;;;5.38;4.88;;;;;;;;;;4984312;28;20222;-56
2021/08/05 13:31:05;;;;;;;22.70;6.47;;;;;;;;;;4987673;28;20198;-56
2021/08/05 13:33:30;;;;;;;5.10;4.15;;;;;;;;;;4990037;28;20198;-55
2021/08/05 13:35:59;;;;;;;5.25;4.63;;;;;;;;;;4993254;28;20583;-55
2021/08/05 13:38:24;;;;;;;30.77;6.47;;;;;;;;;;4990834;28;20192;-55
2021/08/05 13:40:50;;;;;;;7.45;4.05;;;;;;;;;;4991873;28;20203;-55
2021/08/05 13:43:16;;;;;;;10.48;4.07;;;;;;;;;;4995570;28;20215;-55
2021/08/05 13:45:42;;;;;;;6.70;4.30;;;;;;;;;;4997743;28;20219;-55
2021/08/05 13:48:08;;;;;;;5.28;3.80;;;;;;;;;;4995163;28;20222;-54
2021/08/05 13:50:33;;;;;;;4.40;4.00;;;;;;;;;;4976465;28;20243;-55
2021/08/05 13:53:00;;;;;;;11.90;4.20;;;;;;;;;;4994278;28;20196;-56
2021/08/05 13:55:25;;;;;;;9.55;3.88;;;;;;;;;;4994112;28;20703;-55
2021/08/05 13:57:51;;;;;;;9.13;3.17;;;;;;;;;;4995789;28;20195;-57
2021/08/05 14:00:17;;;;;;;17.53;3.90;;;;;;;;;;4994259;28;20246;-57
2021/08/05 14:02:43;;;;;;;10.55;3.75;;;;;;;;;;4983166;28;20826;-56
2021/08/05 14:05:08;;;;;;;4.00;3.17;;;;;;;;;;4996540;28;20184;-56
2021/08/05 14:07:34;;;;;;;14.60;5.15;;;;;;;;;;4961078;28;20238;-57
2021/08/05 14:09:59;;;;;;;4.53;4.13;;;;;;;;;;4992791;28;20273;-57
2021/08/05 14:12:24;;;;;;;3.45;3.15;;;;;;;;;;4992760;28;20208;-57
2021/08/05 14:14:51;;;;;;;3.00;2.80;;;;;;;;;;4998747;28;20175;-57
2021/08/05 14:17:16;;;;;;;2.58;2.38;;;;;;;;;;4995952;28;20203;-56
2021/08/05 14:19:41;;;;;;;3.13;2.83;;;;;;;;;;4989097;28;20652;-56
2021/08/05 14:22:07;;;;;;;3.08;2.58;;;;;;;;;;4987105;28;20702;-59
2021/08/05 14:24:32;;;;;;;3.33;3.13;;;;;;;;;;4993058;28;20227;-56
2021/08/05 14:26:57;;;;;;;3.42;2.85;;;;;;;;;;4992499;28;20184;-57
2021/08/05 14:29:23;;;;;;;7.65;2.90;;;;;;;;;;4991318;28;20274;-56
2021/08/05 14:31:48;;;;;;;3.63;3.03;;;;;;;;;;4991559;28;20203;-57
2021/08/05 14:34:13;;;;;;;3.30;3.10;;;;;;;;;;4989407;28;20215;-56
2021/08/05 14:36:39;;;;;;;3.20;2.90;;;;;;;;;;4996212;28;20181;-55